createdAt,value
2023-01-01T00:00:06.473Z,64.88
2023-01-01T00:02:37.008Z,80.27
2023-01-01T00:05:05.614Z,73.97
2023-01-01T00:07:34.444Z,76.40
2023-01-01T00:10:19.506Z,64.67
2023-01-01T00:12:47.087Z,75.13
2023-01-01T00:15:14.669Z,83.20
2023-01-01T00:17:42.443Z,75.83
2023-01-01T00:20:11.015Z,74.10
2023-01-01T00:22:56.293Z,74.60
2023-01-01T00:25:24.526Z,74.47
2023-01-01T00:27:52.679Z,79.23
2023-01-01T00:30:20.601Z,75.63
2023-01-01T00:32:55.693Z,66.23
2023-01-01T00:35:24.908Z,63.70
2023-01-01T00:37:54.767Z,63.30
2023-01-01T00:40:22.621Z,71.37
2023-01-01T00:42:50.540Z,68.77
2023-01-01T00:45:21.924Z,72.67
2023-01-01T00:47:50.243Z,66.90
2023-01-01T00:50:18.001Z,64.20
2023-01-01T00:52:45.492Z,77.53
2023-01-01T00:55:14.315Z,70.40
2023-01-01T00:57:41.979Z,81.33
2023-01-01T01:00:10.989Z,67.73
2023-01-01T01:02:38.729Z,67.87
2023-01-01T01:05:07.314Z,68.17
2023-01-01T01:07:36.552Z,75.23
2023-01-01T01:10:04.466Z,84.07
2023-01-01T01:12:34.442Z,97.40
2023-01-01T01:15:02.232Z,86.03
2023-01-01T01:17:30.352Z,72.67
2023-01-01T01:19:57.871Z,68.13
2023-01-01T01:22:28.680Z,81.07
2023-01-01T01:24:56.975Z,75.93
2023-01-01T01:27:24.611Z,67.97
2023-01-01T01:29:54.119Z,74.50
2023-01-01T01:32:21.770Z,72.00
2023-01-01T01:34:49.539Z,83.37
2023-01-01T01:37:17.419Z,85.73
2023-01-01T01:39:49.004Z,78.47
2023-01-01T01:42:19.494Z,83.63
2023-01-01T01:45:08.439Z,87.67
2023-01-01T01:47:40.403Z,87.10
2023-01-01T01:50:11.731Z,75.10
2023-01-01T01:52:42.458Z,87.47
2023-01-01T01:55:11.020Z,71.90
2023-01-01T01:57:40.098Z,79.23
2023-01-01T02:00:17.634Z,100.93
2023-01-01T02:02:52.353Z,61.60
2023-01-01T02:05:21.570Z,70.27
2023-01-01T02:07:50.563Z,59.53
2023-01-01T02:10:18.211Z,65.57
2023-01-01T02:12:45.886Z,53.73
2023-01-01T02:15:15.262Z,51.07
2023-01-01T02:17:53.395Z,43.97
2023-01-01T02:20:31.492Z,45.03
2023-01-01T02:23:32.573Z,40.93
2023-01-01T02:26:18.851Z,43.37
2023-01-01T02:28:56.517Z,46.40
2023-01-01T02:31:29.191Z,42.60
2023-01-01T02:34:02.422Z,49.50
2023-01-01T02:36:33.657Z,49.97
2023-01-01T02:39:06.028Z,52.93
2023-01-01T02:41:39.965Z,63.83
2023-01-01T02:44:08.794Z,69.70
2023-01-01T02:46:36.933Z,66.47
2023-01-01T02:49:10.307Z,67.10
2023-01-01T02:51:56.764Z,69.27
2023-01-01T02:54:34.114Z,64.90
2023-01-01T02:57:08.775Z,60.10
2023-01-01T03:00:06.564Z,60.07
2023-01-01T03:02:50.422Z,67.90
2023-01-01T03:05:26.580Z,76.67
2023-01-01T03:08:04.982Z,76.17
2023-01-01T03:10:41.912Z,67.83
2023-01-01T03:13:17.356Z,89.87
2023-01-01T03:15:59.732Z,84.77
2023-01-01T03:18:33.981Z,62.30
2023-01-01T03:21:05.256Z,66.10
2023-01-01T03:23:36.777Z,97.13
2023-01-01T03:26:09.454Z,79.47
2023-01-01T03:28:43.286Z,65.60
2023-01-01T03:31:18.770Z,94.00
2023-01-01T03:33:50.543Z,81.00
2023-01-01T03:36:22.888Z,96.20
2023-01-01T03:38:56.190Z,86.57
2023-01-01T03:41:28.126Z,70.53
2023-01-01T03:44:04.517Z,85.07
2023-01-01T03:46:36.942Z,94.40
2023-01-01T03:49:07.576Z,97.23
2023-01-01T03:51:55.235Z,75.13
2023-01-01T03:54:32.440Z,78.43
2023-01-01T03:57:07.101Z,75.17
2023-01-01T03:59:41.949Z,66.67
2023-01-01T04:02:14.994Z,49.80
2023-01-01T04:04:43.153Z,52.67
2023-01-01T04:07:15.268Z,49.17
2023-01-01T04:09:47.446Z,56.80
2023-01-01T04:12:16.846Z,62.23
2023-01-01T04:14:45.017Z,63.27
2023-01-01T04:17:14.568Z,55.50
2023-01-01T04:19:42.042Z,53.67
2023-01-01T04:22:09.575Z,48.77
2023-01-01T04:24:37.065Z,49.47
2023-01-01T04:27:05.030Z,52.87
2023-01-01T04:29:33.520Z,54.13
2023-01-01T04:32:01.000Z,87.10
2023-01-01T04:34:29.822Z,84.50
2023-01-01T04:36:57.293Z,80.13
2023-01-01T04:39:24.783Z,72.07
2023-01-01T04:41:52.286Z,101.00
2023-01-01T04:44:19.850Z,93.90
2023-01-01T04:46:47.359Z,51.67
2023-01-01T04:49:14.848Z,56.30
2023-01-01T04:51:43.746Z,55.63
2023-01-01T04:54:11.443Z,63.93
2023-01-01T04:56:38.973Z,55.90
2023-01-01T04:59:06.507Z,67.40
2023-01-01T05:01:34.201Z,90.07
2023-01-01T05:04:02.317Z,64.73
2023-01-01T05:06:30.076Z,80.83
2023-01-01T05:08:59.545Z,88.53
2023-01-01T05:11:28.828Z,80.47
2023-01-01T05:13:58.830Z,82.53
2023-01-01T05:16:28.593Z,60.27
2023-01-01T05:18:56.892Z,58.60
2023-01-01T05:21:26.243Z,59.63
2023-01-01T05:23:55.858Z,50.33
2023-01-01T05:26:28.254Z,65.17
2023-01-01T05:28:56.822Z,61.27
2023-01-01T05:31:27.519Z,62.83
2023-01-01T05:33:55.774Z,63.90
2023-01-01T05:36:25.333Z,78.67
2023-01-01T05:38:53.654Z,92.97
2023-01-01T05:41:22.513Z,80.60
2023-01-01T05:43:52.751Z,98.53
2023-01-01T05:46:21.424Z,88.63
2023-01-01T05:48:49.888Z,71.93
2023-01-01T05:51:19.512Z,90.20
2023-01-01T05:53:47.192Z,72.77
2023-01-01T05:56:15.632Z,69.20
2023-01-01T05:58:44.363Z,67.00
2023-01-01T06:01:16.081Z,61.07
2023-01-01T06:03:44.579Z,64.00
2023-01-01T06:06:14.114Z,71.70
2023-01-01T06:08:42.145Z,75.33
2023-01-01T06:11:12.309Z,68.50
2023-01-01T06:13:39.973Z,66.67
2023-01-01T06:16:08.479Z,63.83
2023-01-01T06:18:37.379Z,65.20
2023-01-01T06:21:06.581Z,96.67
2023-01-01T06:23:34.505Z,94.17
2023-01-01T06:26:07.116Z,92.07
2023-01-01T06:28:34.736Z,87.10
2023-01-01T06:31:02.563Z,64.93
2023-01-01T06:33:30.302Z,66.87
2023-01-01T06:35:59.870Z,89.27
2023-01-01T06:38:27.345Z,64.27
2023-01-01T06:40:58.408Z,78.00
2023-01-01T06:43:26.102Z,73.37
2023-01-01T06:46:04.062Z,61.33
2023-01-01T06:48:33.332Z,82.20
2023-01-01T06:51:07.054Z,96.87
2023-01-01T06:53:34.746Z,81.07
2023-01-01T06:56:02.389Z,79.33
2023-01-01T06:58:29.961Z,70.63
2023-01-01T07:01:08.372Z,71.23
2023-01-01T07:03:37.279Z,73.87
2023-01-01T07:06:07.364Z,71.63
2023-01-01T07:08:34.895Z,78.67
2023-01-01T07:11:02.797Z,71.07
2023-01-01T07:13:31.577Z,65.57
2023-01-01T07:15:59.475Z,72.57
2023-01-01T07:18:27.017Z,71.77
2023-01-01T07:20:56.391Z,69.57
2023-01-01T07:23:26.266Z,68.33
2023-01-01T07:25:54.893Z,72.17
2023-01-01T07:28:23.635Z,76.57
2023-01-01T07:30:52.455Z,75.67
2023-01-01T07:33:22.137Z,66.90
2023-01-01T07:35:49.733Z,74.80
2023-01-01T07:38:17.660Z,72.03
2023-01-01T07:40:46.562Z,73.50
2023-01-01T07:43:14.177Z,73.93
2023-01-01T07:45:42.023Z,69.00
2023-01-01T07:48:14.538Z,72.00
2023-01-01T07:50:42.387Z,75.83
2023-01-01T07:53:10.061Z,74.43
2023-01-01T07:55:37.800Z,72.27
2023-01-01T07:58:06.671Z,72.57
2023-01-01T08:00:34.192Z,75.93
2023-01-01T08:03:01.891Z,72.60
2023-01-01T08:05:29.518Z,74.03
2023-01-01T08:07:57.009Z,72.73
2023-01-01T08:10:24.704Z,72.10
2023-01-01T08:12:52.204Z,80.03
2023-01-01T08:15:21.020Z,78.77
2023-01-01T08:17:48.528Z,76.83
2023-01-01T08:20:16.112Z,76.37
2023-01-01T08:22:43.630Z,73.43
2023-01-01T08:25:11.128Z,74.27
2023-01-01T08:27:39.057Z,80.07
2023-01-01T08:30:07.693Z,76.57
2023-01-01T08:32:36.511Z,77.63
2023-01-01T08:35:04.064Z,73.50
2023-01-01T08:37:31.578Z,76.93
2023-01-01T08:39:59.114Z,80.50
2023-01-01T08:42:26.595Z,76.70
2023-01-01T08:44:54.104Z,74.23
2023-01-01T08:47:23.908Z,80.57
2023-01-01T08:49:52.969Z,78.73
2023-01-01T08:52:21.337Z,80.53
2023-01-01T08:54:48.849Z,77.87
2023-01-01T08:57:16.620Z,66.50
2023-01-01T08:59:44.104Z,58.00
2023-01-01T09:02:13.324Z,64.45
2023-01-01T09:04:40.961Z,62.88
2023-01-01T09:07:09.779Z,61.83
2023-01-01T09:09:37.269Z,57.55
2023-01-01T09:12:06.466Z,51.10
2023-01-01T09:14:34.978Z,60.10
2023-01-01T09:17:02.619Z,50.17
2023-01-01T09:19:30.120Z,40.92
2023-01-01T09:21:57.687Z,46.30
2023-01-01T09:24:26.560Z,45.20
2023-01-01T09:26:54.058Z,42.72
2023-01-01T09:29:21.816Z,45.95
2023-01-01T09:31:49.938Z,48.90
2023-01-01T09:34:18.004Z,46.50
2023-01-01T09:36:46.747Z,45.58
2023-01-01T09:39:16.349Z,49.53
2023-01-01T09:42:04.088Z,40.15
2023-01-01T09:44:50.770Z,41.42
2023-01-01T09:47:24.112Z,39.67
2023-01-01T09:49:56.092Z,46.58
2023-01-01T09:52:23.829Z,51.75
2023-01-01T09:54:56.806Z,61.85
2023-01-01T09:57:30.754Z,63.00
2023-01-01T10:00:00.411Z,52.55
2023-01-01T10:02:49.807Z,50.08
2023-01-01T10:05:32.382Z,44.88
2023-01-01T10:08:06.991Z,38.78
2023-01-01T10:10:41.181Z,40.97
2023-01-01T10:13:22.630Z,36.35
2023-01-01T10:15:57.395Z,37.17
2023-01-01T10:18:29.877Z,38.78
2023-01-01T10:21:03.651Z,40.05
2023-01-01T10:23:36.096Z,38.33
2023-01-01T10:26:09.576Z,39.22
2023-01-01T10:28:43.842Z,38.10
2023-01-01T10:31:17.194Z,37.03
2023-01-01T10:33:46.670Z,36.90
2023-01-01T10:36:16.855Z,35.15
2023-01-01T10:38:44.716Z,34.42
2023-01-01T10:41:19.261Z,34.05
2023-01-01T10:43:50.370Z,32.60
2023-01-01T10:46:29.575Z,34.95
2023-01-01T10:49:16.908Z,35.25
2023-01-01T10:51:46.841Z,28.77
2023-01-01T10:54:31.517Z,32.17
2023-01-01T10:56:59.380Z,27.50
2023-01-01T10:59:40.025Z,31.92
2023-01-01T11:02:17.973Z,29.05
2023-01-01T11:04:45.839Z,28.45
2023-01-01T11:07:22.329Z,32.42
2023-01-01T11:10:02.456Z,31.05
2023-01-01T11:15:35.611Z,30.08
2023-01-01T11:18:08.931Z,31.20
2023-01-01T11:20:36.473Z,38.22
2023-01-01T11:23:29.796Z,37.08
2023-01-01T11:25:59.945Z,47.78
2023-01-01T11:28:28.638Z,43.15
2023-01-01T11:31:06.400Z,50.08
2023-01-01T11:33:37.550Z,37.72
2023-01-01T11:36:06.860Z,31.13
2023-01-01T11:38:35.284Z,25.33
2023-01-01T11:41:05.787Z,24.95
2023-01-01T11:43:40.738Z,47.60
2023-01-01T11:46:13.081Z,42.75
2023-01-01T11:48:44.098Z,41.42
2023-01-01T11:51:28.593Z,49.60
2023-01-01T11:54:11.024Z,53.20
2023-01-01T11:56:39.061Z,54.08
2023-01-01T11:59:13.886Z,43.70
2023-01-01T12:01:47.956Z,29.92
2023-01-01T12:04:20.531Z,25.42
2023-01-01T12:06:54.079Z,24.38
2023-01-01T12:09:25.845Z,26.38
2023-01-01T12:11:58.558Z,26.98
2023-01-01T12:14:47.386Z,27.50
2023-01-01T12:17:24.242Z,27.63
2023-01-01T12:20:00.439Z,25.25
2023-01-01T12:22:28.195Z,22.90
2023-01-01T12:24:56.075Z,22.77
2023-01-01T12:27:37.879Z,22.40
2023-01-01T12:30:22.609Z,23.92
2023-01-01T12:33:08.492Z,22.13
2023-01-01T12:35:53.256Z,36.05
2023-01-01T12:38:40.695Z,36.35
2023-01-01T12:41:13.820Z,33.47
2023-01-01T12:43:51.178Z,22.17
2023-01-01T12:46:35.611Z,20.77
2023-01-01T12:49:20.876Z,22.60
2023-01-01T12:51:58.818Z,25.85
2023-01-01T12:54:44.636Z,23.75
2023-01-01T12:57:19.799Z,24.52
2023-01-01T12:59:50.749Z,23.35
2023-01-01T13:02:22.630Z,29.60
2023-01-01T13:04:56.279Z,36.35
2023-01-01T13:07:30.550Z,36.95
2023-01-01T13:10:03.965Z,32.47
2023-01-01T13:12:32.864Z,36.45
2023-01-01T13:15:00.548Z,38.60
2023-01-01T13:17:30.941Z,29.85
2023-01-01T13:20:15.438Z,26.63
2023-01-01T13:22:44.270Z,26.98
2023-01-01T13:25:23.357Z,27.02
2023-01-01T13:28:06.368Z,23.67
2023-01-01T13:30:50.562Z,27.25
2023-01-01T13:33:26.140Z,33.25
2023-01-01T13:36:33.146Z,29.00
2023-01-01T13:39:02.082Z,22.20
2023-01-01T13:41:30.926Z,24.95
2023-01-01T13:44:17.367Z,23.58
2023-01-01T13:46:56.512Z,25.25
2023-01-01T13:49:37.390Z,27.23
2023-01-01T13:52:29.296Z,29.20
2023-01-01T13:55:37.283Z,49.10
2023-01-01T13:58:36.701Z,52.50
2023-01-01T14:01:34.487Z,63.70
2023-01-01T14:04:06.576Z,52.88
2023-01-01T14:06:39.203Z,29.48
2023-01-01T14:09:13.345Z,28.42
2023-01-01T14:11:41.723Z,28.98
2023-01-01T14:14:24.045Z,36.33
2023-01-01T14:16:52.585Z,35.63
2023-01-01T14:19:20.230Z,28.98
2023-01-01T14:21:47.788Z,27.55
2023-01-01T14:24:20.953Z,27.02
2023-01-01T14:26:49.257Z,24.77
2023-01-01T14:29:27.307Z,28.52
2023-01-01T14:31:55.561Z,30.13
2023-01-01T14:34:26.841Z,34.38
2023-01-01T14:36:56.249Z,33.42
2023-01-01T14:39:30.003Z,30.92
2023-01-01T14:42:02.290Z,29.35
2023-01-01T14:44:35.715Z,31.30
2023-01-01T14:47:05.227Z,32.10
2023-01-01T14:49:35.866Z,27.27
2023-01-01T14:52:07.107Z,25.80
2023-01-01T14:54:39.254Z,28.02
2023-01-01T14:57:11.977Z,27.60
2023-01-01T14:59:46.684Z,24.23
2023-01-01T15:02:16.387Z,28.15
2023-01-01T15:04:44.772Z,28.20
2023-01-01T15:07:21.845Z,25.63
2023-01-01T15:09:50.786Z,29.80
2023-01-01T15:12:20.160Z,27.55
2023-01-01T15:14:48.652Z,26.42
2023-01-01T15:17:18.286Z,30.98
2023-01-01T15:19:47.799Z,26.80
2023-01-01T15:22:21.469Z,27.08
2023-01-01T15:24:50.868Z,27.45
2023-01-01T15:27:25.125Z,28.30
2023-01-01T15:29:53.181Z,27.95
2023-01-01T15:32:26.204Z,28.33
2023-01-01T15:34:55.422Z,33.20
2023-01-01T15:37:28.371Z,27.95
2023-01-01T15:40:00.559Z,28.33
2023-01-01T15:42:34.271Z,31.88
2023-01-01T15:45:22.655Z,30.02
2023-01-01T15:47:51.317Z,28.33
2023-01-01T15:50:25.601Z,30.03
2023-01-01T15:52:56.765Z,31.17
2023-01-01T15:55:27.498Z,31.20
2023-01-01T15:57:56.029Z,29.50
2023-01-01T16:00:26.129Z,35.37
2023-01-01T16:02:56.669Z,37.13
2023-01-01T16:05:26.818Z,29.25
2023-01-01T16:08:01.903Z,35.22
2023-01-01T16:10:31.739Z,36.50
2023-01-01T16:12:59.865Z,36.83
2023-01-01T16:15:27.781Z,30.83
2023-01-01T16:17:56.083Z,29.48
2023-01-01T16:20:25.248Z,34.77
2023-01-01T16:22:52.786Z,29.52
2023-01-01T16:25:22.472Z,31.30
2023-01-01T16:27:51.296Z,34.40
2023-01-01T16:30:18.977Z,31.63
2023-01-01T16:32:48.888Z,32.07
2023-01-01T16:35:16.780Z,31.87
2023-01-01T16:37:44.282Z,41.07
2023-01-01T16:40:12.137Z,33.17
2023-01-01T16:42:39.615Z,31.00
2023-01-01T16:45:14.072Z,33.37
2023-01-01T16:47:41.553Z,33.73
2023-01-01T16:50:10.598Z,35.20
2023-01-01T16:52:44.260Z,33.80
2023-01-01T16:55:12.804Z,37.07
2023-01-01T16:57:40.515Z,39.47
2023-01-01T17:00:11.465Z,43.77
2023-01-01T17:02:39.096Z,37.47
2023-01-01T17:05:07.170Z,33.90
2023-01-01T17:07:34.984Z,34.60
2023-01-01T17:10:02.744Z,32.83
2023-01-01T17:12:30.237Z,32.77
2023-01-01T17:14:57.726Z,32.07
2023-01-01T17:17:26.539Z,31.93
2023-01-01T17:19:54.023Z,34.87
2023-01-01T17:22:21.485Z,34.67
2023-01-01T17:24:48.962Z,33.87
2023-01-01T17:27:16.457Z,39.23
2023-01-01T17:29:44.004Z,42.07
2023-01-01T17:32:13.718Z,45.23
2023-01-01T17:34:42.535Z,36.75
2023-01-01T17:37:10.018Z,37.40
2023-01-01T17:39:37.511Z,38.17
2023-01-01T17:42:05.271Z,34.60
2023-01-01T17:44:32.774Z,52.80
2023-01-01T17:47:00.312Z,44.37
2023-01-01T17:49:27.797Z,40.37
2023-01-01T17:51:56.635Z,44.87
2023-01-01T17:54:24.132Z,41.77
2023-01-01T17:56:51.650Z,62.73
2023-01-01T17:59:19.317Z,63.97
2023-01-01T18:01:46.906Z,49.10
2023-01-01T18:04:14.435Z,42.07
2023-01-01T18:06:44.255Z,32.93
2023-01-01T18:09:16.234Z,30.07
2023-01-01T18:11:44.361Z,31.73
2023-01-01T18:14:13.621Z,31.70
2023-01-01T18:16:44.441Z,31.10
2023-01-01T18:19:12.016Z,27.60
2023-01-01T18:21:39.498Z,30.30
2023-01-01T18:24:11.950Z,32.47
2023-01-01T18:26:41.053Z,30.83
2023-01-01T18:29:08.667Z,29.70
2023-01-01T18:31:36.592Z,30.43
2023-01-01T18:34:04.648Z,30.20
2023-01-01T18:36:34.329Z,29.43
2023-01-01T18:39:03.181Z,30.33
2023-01-01T18:41:47.229Z,28.77
2023-01-01T18:44:20.688Z,26.33
2023-01-01T18:46:55.305Z,26.37
2023-01-01T18:49:23.780Z,29.43
2023-01-01T18:51:55.077Z,30.13
2023-01-01T18:54:22.763Z,27.43
2023-01-01T18:56:53.435Z,30.57
2023-01-01T18:59:22.954Z,29.63
2023-01-01T19:01:50.824Z,28.63
2023-01-01T19:04:19.627Z,28.63
2023-01-01T19:06:47.566Z,28.77
2023-01-01T19:09:20.826Z,28.90
2023-01-01T19:11:48.681Z,27.90
2023-01-01T19:14:20.042Z,31.32
2023-01-01T19:16:48.794Z,28.80
2023-01-01T19:19:20.001Z,27.63
2023-01-01T19:21:51.931Z,35.90
2023-01-01T19:24:23.360Z,45.40
2023-01-01T19:26:55.721Z,37.70
2023-01-01T19:29:26.017Z,39.07
2023-01-01T19:31:55.550Z,39.13
2023-01-01T19:34:23.936Z,47.73
2023-01-01T19:36:51.954Z,37.03
2023-01-01T19:39:19.999Z,44.40
2023-01-01T19:41:47.604Z,39.60
2023-01-01T19:44:19.883Z,32.47
2023-01-01T19:46:51.957Z,40.67
2023-01-01T19:49:19.540Z,30.63
2023-01-01T19:51:47.007Z,32.80
2023-01-01T19:54:14.497Z,37.50
2023-01-01T19:56:41.988Z,29.23
2023-01-01T19:59:09.518Z,29.57
2023-01-01T20:01:37.306Z,32.23
2023-01-01T20:04:06.465Z,36.77
2023-01-01T20:06:36.292Z,38.00
2023-01-01T20:09:04.463Z,39.83
2023-01-01T20:11:32.116Z,31.67
2023-01-01T20:14:00.001Z,41.43
2023-01-01T20:16:27.601Z,39.43
2023-01-01T20:18:55.132Z,29.80
2023-01-01T20:21:41.611Z,35.33
2023-01-01T20:24:10.960Z,29.57
2023-01-01T20:26:38.481Z,47.20
2023-01-01T20:29:21.043Z,30.30
2023-01-01T20:31:49.777Z,39.70
2023-01-01T20:34:17.571Z,61.23
2023-01-01T20:37:04.227Z,65.37
2023-01-01T20:39:32.272Z,64.27
2023-01-01T20:41:59.787Z,64.10
2023-01-01T20:44:27.668Z,54.63
2023-01-01T20:46:55.422Z,62.93
2023-01-01T20:49:23.390Z,38.10
2023-01-01T20:51:53.938Z,52.30
2023-01-01T20:54:23.458Z,59.60
2023-01-01T20:56:51.179Z,68.70
2023-01-01T20:59:34.957Z,61.93
2023-01-01T21:02:04.348Z,51.60
2023-01-01T21:04:32.052Z,38.83
2023-01-01T21:07:00.885Z,48.67
2023-01-01T21:09:28.381Z,50.70
2023-01-01T21:11:55.860Z,72.50
2023-01-01T21:14:25.633Z,50.43
2023-01-01T21:16:53.207Z,38.40
2023-01-01T21:19:26.267Z,65.37
2023-01-01T21:21:56.652Z,69.47
2023-01-01T21:24:27.904Z,55.80
2023-01-01T21:27:01.080Z,67.63
2023-01-01T21:29:33.967Z,62.07
2023-01-01T21:32:13.652Z,31.70
2023-01-01T21:34:42.760Z,27.73
2023-01-01T21:37:14.720Z,28.60
2023-01-01T21:39:43.555Z,33.20
2023-01-01T21:42:23.745Z,29.40
2023-01-01T21:44:56.742Z,31.80
2023-01-01T21:47:25.736Z,32.17
2023-01-01T21:49:56.705Z,24.97
2023-01-01T21:52:25.799Z,37.00
2023-01-01T21:54:55.641Z,27.47
2023-01-01T21:57:25.186Z,27.70
2023-01-01T21:59:54.106Z,32.33
2023-01-01T22:02:33.526Z,32.17
2023-01-01T22:05:03.491Z,25.80
2023-01-01T22:10:25.026Z,27.23
2023-01-01T22:12:56.966Z,22.37
2023-01-01T22:15:30.508Z,24.60
2023-01-01T22:18:16.103Z,22.23
2023-01-01T22:20:45.876Z,23.23
2023-01-01T22:23:35.695Z,27.23
2023-01-01T22:26:12.804Z,23.53
2023-01-01T22:28:44.084Z,22.60
2023-01-01T22:31:17.684Z,24.07
2023-01-01T22:33:47.811Z,23.40
2023-01-01T22:36:17.910Z,24.23
2023-01-01T22:38:45.720Z,23.80
2023-01-01T22:41:14.895Z,23.10
2023-01-01T22:43:44.336Z,23.57
2023-01-01T22:46:18.117Z,22.90
2023-01-01T22:48:45.888Z,22.43
2023-01-01T22:51:18.140Z,22.67
2023-01-01T22:53:46.248Z,20.83
2023-01-01T22:56:15.382Z,21.77
2023-01-01T22:58:43.007Z,20.87
2023-01-01T23:01:11.283Z,23.83
2023-01-01T23:03:38.847Z,23.77
2023-01-01T23:06:07.236Z,23.00
2023-01-01T23:08:34.728Z,23.93
2023-01-01T23:11:02.518Z,21.97
2023-01-01T23:13:49.219Z,23.63
2023-01-01T23:16:16.725Z,22.77
2023-01-01T23:18:44.270Z,23.30
2023-01-01T23:21:14.919Z,22.27
2023-01-01T23:23:42.737Z,21.50
2023-01-01T23:26:11.092Z,26.50
2023-01-01T23:28:40.076Z,21.23
2023-01-01T23:31:10.056Z,23.67
2023-01-01T23:33:37.976Z,23.50
2023-01-01T23:36:06.807Z,23.27
2023-01-01T23:38:34.611Z,21.97
2023-01-01T23:41:02.270Z,21.50
2023-01-01T23:43:29.780Z,23.03
2023-01-01T23:45:58.844Z,25.37
2023-01-01T23:48:26.392Z,23.83
2023-01-01T23:50:53.886Z,23.37
2023-01-01T23:53:21.379Z,22.47
2023-01-01T23:55:48.898Z,23.63
2023-01-01T23:58:17.084Z,23.13
